Live aus Altenrhein
LIVE
LSZR 170720Z AUTO 27009KT 210V310 9999 BKN060 BKN080 01/M03 Q1022
Zeitraffer heute
2017-12-17 00:14:57
LSZR 162250Z AUTO 25005KT 210V310 9999 BKN044 BKN070 02/M00 Q1019
Zeitraffer gestern
2017-12-16 00:14:59
LSZR 152250Z AUTO VRB02KT 9999 BKN070 BKN090 03/M02 Q1002
Zeitraffer vor 3 Tagen
2017-12-14 00:00:00
LSZR 132250Z AUTO 29013KT 9999 BKN050 03/00 Q1001